sensor_id;sensor_type;location;lat;lon;timestamp;P1;durP1;ratioP1;P2;durP2;ratioP2
19848;SDS011;10085;51.120;6.956;2022-09-09T00:01:28;5.13;;;1.80;;
19848;SDS011;10085;51.120;6.956;2022-09-09T00:06:34;2.25;;;1.50;;
19848;SDS011;10085;51.120;6.956;2022-09-09T00:11:47;4.65;;;1.85;;
19848;SDS011;10085;51.120;6.956;2022-09-09T00:16:54;6.88;;;1.88;;
19848;SDS011;10085;51.120;6.956;2022-09-09T00:22:01;3.55;;;1.70;;
19848;SDS011;10085;51.120;6.956;2022-09-09T00:27:13;5.45;;;1.80;;
19848;SDS011;10085;51.120;6.956;2022-09-09T00:32:20;2.72;;;1.70;;
19848;SDS011;10085;51.120;6.956;2022-09-09T00:37:23;4.03;;;1.67;;
19848;SDS011;10085;51.120;6.956;2022-09-09T00:42:32;4.72;;;2.00;;
19848;SDS011;10085;51.120;6.956;2022-09-09T00:47:44;2.95;;;1.52;;
19848;SDS011;10085;51.120;6.956;2022-09-09T00:52:49;4.97;;;1.85;;
19848;SDS011;10085;51.120;6.956;2022-09-09T00:57:57;2.75;;;1.70;;
19848;SDS011;10085;51.120;6.956;2022-09-09T01:03:11;4.28;;;1.80;;
19848;SDS011;10085;51.120;6.956;2022-09-09T01:08:28;5.85;;;1.80;;
19848;SDS011;10085;51.120;6.956;2022-09-09T01:13:41;4.60;;;1.70;;
19848;SDS011;10085;51.120;6.956;2022-09-09T01:18:47;3.28;;;1.60;;
19848;SDS011;10085;51.120;6.956;2022-09-09T01:24:00;4.55;;;1.60;;
19848;SDS011;10085;51.120;6.956;2022-09-09T01:29:34;5.60;;;1.70;;
19848;SDS011;10085;51.120;6.956;2022-09-09T01:34:38;3.80;;;1.70;;
19848;SDS011;10085;51.120;6.956;2022-09-09T01:39:42;3.85;;;1.55;;
19848;SDS011;10085;51.120;6.956;2022-09-09T01:44:50;5.82;;;2.20;;
19848;SDS011;10085;51.120;6.956;2022-09-09T01:49:53;3.20;;;1.60;;
19848;SDS011;10085;51.120;6.956;2022-09-09T01:54:59;2.97;;;1.40;;
19848;SDS011;10085;51.120;6.956;2022-09-09T02:00:10;6.28;;;1.85;;
19848;SDS011;10085;51.120;6.956;2022-09-09T02:05:20;4.43;;;1.63;;
19848;SDS011;10085;51.120;6.956;2022-09-09T02:10:32;3.00;;;1.25;;
19848;SDS011;10085;51.120;6.956;2022-09-09T02:15:52;2.97;;;1.40;;
19848;SDS011;10085;51.120;6.956;2022-09-09T02:20:55;4.28;;;1.40;;
19848;SDS011;10085;51.120;6.956;2022-09-09T02:25:59;1.67;;;1.30;;
19848;SDS011;10085;51.120;6.956;2022-09-09T02:31:05;2.83;;;1.40;;
19848;SDS011;10085;51.120;6.956;2022-09-09T02:36:13;2.67;;;1.30;;
19848;SDS011;10085;51.120;6.956;2022-09-09T02:41:19;2.83;;;1.23;;
19848;SDS011;10085;51.120;6.956;2022-09-09T02:46:29;2.65;;;1.30;;
19848;SDS011;10085;51.120;6.956;2022-09-09T02:51:40;3.35;;;1.48;;
19848;SDS011;10085;51.120;6.956;2022-09-09T02:56:51;2.13;;;1.40;;
19848;SDS011;10085;51.120;6.956;2022-09-09T03:02:02;4.07;;;1.60;;
19848;SDS011;10085;51.120;6.956;2022-09-09T03:07:06;3.08;;;1.40;;
19848;SDS011;10085;51.120;6.956;2022-09-09T03:12:09;2.08;;;1.25;;
19848;SDS011;10085;51.120;6.956;2022-09-09T03:17:14;4.72;;;1.40;;
19848;SDS011;10085;51.120;6.956;2022-09-09T03:22:24;3.92;;;1.45;;
19848;SDS011;10085;51.120;6.956;2022-09-09T03:27:29;4.47;;;1.75;;
19848;SDS011;10085;51.120;6.956;2022-09-09T03:32:33;4.10;;;1.52;;
19848;SDS011;10085;51.120;6.956;2022-09-09T03:37:37;4.65;;;1.70;;
19848;SDS011;10085;51.120;6.956;2022-09-09T03:42:40;6.43;;;1.70;;
19848;SDS011;10085;51.120;6.956;2022-09-09T03:47:45;4.32;;;2.00;;
19848;SDS011;10085;51.120;6.956;2022-09-09T03:52:48;5.03;;;1.73;;
19848;SDS011;10085;51.120;6.956;2022-09-09T03:57:55;4.38;;;1.83;;
19848;SDS011;10085;51.120;6.956;2022-09-09T04:02:59;3.40;;;1.60;;
19848;SDS011;10085;51.120;6.956;2022-09-09T04:08:02;5.60;;;1.70;;
19848;SDS011;10085;51.120;6.956;2022-09-09T04:13:05;6.32;;;1.50;;
19848;SDS011;10085;51.120;6.956;2022-09-09T04:18:09;3.88;;;1.60;;
19848;SDS011;10085;51.120;6.956;2022-09-09T04:23:17;5.30;;;1.70;;
19848;SDS011;10085;51.120;6.956;2022-09-09T04:28:22;3.67;;;1.63;;
19848;SDS011;10085;51.120;6.956;2022-09-09T04:33:29;7.38;;;1.70;;
19848;SDS011;10085;51.120;6.956;2022-09-09T04:38:37;2.67;;;1.60;;
19848;SDS011;10085;51.120;6.956;2022-09-09T04:43:40;4.85;;;2.05;;
19848;SDS011;10085;51.120;6.956;2022-09-09T04:48:45;7.10;;;1.83;;
19848;SDS011;10085;51.120;6.956;2022-09-09T04:53:48;8.13;;;1.90;;
19848;SDS011;10085;51.120;6.956;2022-09-09T04:58:52;3.45;;;2.00;;
19848;SDS011;10085;51.120;6.956;2022-09-09T05:04:02;3.00;;;1.52;;
19848;SDS011;10085;51.120;6.956;2022-09-09T05:09:07;5.35;;;1.65;;
19848;SDS011;10085;51.120;6.956;2022-09-09T05:14:11;4.13;;;1.75;;
19848;SDS011;10085;51.120;6.956;2022-09-09T05:19:15;3.05;;;1.67;;
19848;SDS011;10085;51.120;6.956;2022-09-09T05:24:24;3.45;;;1.55;;
19848;SDS011;10085;51.120;6.956;2022-09-09T05:29:29;2.40;;;1.60;;
19848;SDS011;10085;51.120;6.956;2022-09-09T05:34:37;4.18;;;1.60;;
19848;SDS011;10085;51.120;6.956;2022-09-09T05:39:40;3.55;;;1.67;;
19848;SDS011;10085;51.120;6.956;2022-09-09T05:44:44;4.15;;;1.98;;
19848;SDS011;10085;51.120;6.956;2022-09-09T05:49:48;5.70;;;2.10;;
19848;SDS011;10085;51.120;6.956;2022-09-09T05:54:51;5.82;;;1.63;;
19848;SDS011;10085;51.120;6.956;2022-09-09T05:59:57;3.72;;;1.70;;
19848;SDS011;10085;51.120;6.956;2022-09-09T06:05:02;2.80;;;1.52;;
19848;SDS011;10085;51.120;6.956;2022-09-09T06:10:05;3.72;;;1.70;;
19848;SDS011;10085;51.120;6.956;2022-09-09T06:15:09;4.40;;;1.63;;
19848;SDS011;10085;51.120;6.956;2022-09-09T06:20:14;4.43;;;1.67;;
19848;SDS011;10085;51.120;6.956;2022-09-09T06:25:17;4.43;;;1.85;;
19848;SDS011;10085;51.120;6.956;2022-09-09T06:30:20;4.07;;;1.63;;
19848;SDS011;10085;51.120;6.956;2022-09-09T06:35:24;4.85;;;1.60;;
19848;SDS011;10085;51.120;6.956;2022-09-09T06:40:28;7.07;;;1.60;;
19848;SDS011;10085;51.120;6.956;2022-09-09T06:45:31;3.90;;;1.75;;
19848;SDS011;10085;51.120;6.956;2022-09-09T06:50:35;3.00;;;1.50;;
19848;SDS011;10085;51.120;6.956;2022-09-09T06:55:38;5.28;;;1.90;;
19848;SDS011;10085;51.120;6.956;2022-09-09T07:00:43;4.55;;;1.50;;
19848;SDS011;10085;51.120;6.956;2022-09-09T07:05:54;2.60;;;1.60;;
19848;SDS011;10085;51.120;6.956;2022-09-09T07:11:03;3.90;;;1.50;;
19848;SDS011;10085;51.120;6.956;2022-09-09T07:16:15;2.85;;;1.60;;
19848;SDS011;10085;51.120;6.956;2022-09-09T07:21:20;4.50;;;1.38;;
19848;SDS011;10085;51.120;6.956;2022-09-09T07:26:24;3.90;;;1.45;;
19848;SDS011;10085;51.120;6.956;2022-09-09T07:31:30;6.43;;;1.75;;
19848;SDS011;10085;51.120;6.956;2022-09-09T07:36:36;3.47;;;1.40;;
19848;SDS011;10085;51.120;6.956;2022-09-09T07:41:43;3.63;;;1.80;;
19848;SDS011;10085;51.120;6.956;2022-09-09T07:46:48;5.85;;;1.98;;
19848;SDS011;10085;51.120;6.956;2022-09-09T07:51:58;3.42;;;1.50;;
19848;SDS011;10085;51.120;6.956;2022-09-09T07:57:01;6.30;;;1.80;;
19848;SDS011;10085;51.120;6.956;2022-09-09T08:02:08;4.13;;;1.55;;
19848;SDS011;10085;51.120;6.956;2022-09-09T08:07:13;2.88;;;1.67;;
19848;SDS011;10085;51.120;6.956;2022-09-09T08:12:21;8.50;;;1.75;;
19848;SDS011;10085;51.120;6.956;2022-09-09T08:17:24;4.95;;;1.63;;
19848;SDS011;10085;51.120;6.956;2022-09-09T08:22:29;5.72;;;1.58;;
19848;SDS011;10085;51.120;6.956;2022-09-09T08:27:31;5.50;;;1.58;;
19848;SDS011;10085;51.120;6.956;2022-09-09T08:32:34;4.03;;;1.60;;
19848;SDS011;10085;51.120;6.956;2022-09-09T08:37:42;7.00;;;1.63;;
19848;SDS011;10085;51.120;6.956;2022-09-09T08:42:45;3.10;;;1.40;;
19848;SDS011;10085;51.120;6.956;2022-09-09T08:47:58;5.05;;;1.60;;
19848;SDS011;10085;51.120;6.956;2022-09-09T08:53:11;3.47;;;1.73;;
19848;SDS011;10085;51.120;6.956;2022-09-09T08:58:19;5.18;;;1.70;;
19848;SDS011;10085;51.120;6.956;2022-09-09T09:03:28;7.63;;;2.00;;
19848;SDS011;10085;51.120;6.956;2022-09-09T09:08:38;5.90;;;1.58;;
19848;SDS011;10085;51.120;6.956;2022-09-09T09:13:45;8.52;;;1.50;;
19848;SDS011;10085;51.120;6.956;2022-09-09T09:18:52;5.45;;;1.45;;
19848;SDS011;10085;51.120;6.956;2022-09-09T09:24:00;5.70;;;1.50;;
19848;SDS011;10085;51.120;6.956;2022-09-09T09:29:08;5.20;;;1.52;;
19848;SDS011;10085;51.120;6.956;2022-09-09T09:34:15;3.28;;;1.38;;
19848;SDS011;10085;51.120;6.956;2022-09-09T09:39:25;5.22;;;1.60;;
19848;SDS011;10085;51.120;6.956;2022-09-09T09:44:49;4.35;;;1.38;;
19848;SDS011;10085;51.120;6.956;2022-09-09T09:49:55;5.20;;;1.60;;
19848;SDS011;10085;51.120;6.956;2022-09-09T09:55:03;2.92;;;1.20;;
19848;SDS011;10085;51.120;6.956;2022-09-09T10:00:12;2.10;;;1.27;;
19848;SDS011;10085;51.120;6.956;2022-09-09T10:05:18;2.13;;;1.10;;
19848;SDS011;10085;51.120;6.956;2022-09-09T10:10:36;3.38;;;1.40;;
19848;SDS011;10085;51.120;6.956;2022-09-09T10:15:49;3.33;;;1.20;;
19848;SDS011;10085;51.120;6.956;2022-09-09T10:21:07;2.22;;;1.20;;
19848;SDS011;10085;51.120;6.956;2022-09-09T10:26:23;3.60;;;1.17;;
19848;SDS011;10085;51.120;6.956;2022-09-09T10:31:32;2.55;;;1.13;;
19848;SDS011;10085;51.120;6.956;2022-09-09T10:36:41;1.65;;;1.00;;
19848;SDS011;10085;51.120;6.956;2022-09-09T10:41:50;4.47;;;1.08;;
19848;SDS011;10085;51.120;6.956;2022-09-09T10:47:03;4.53;;;1.27;;
19848;SDS011;10085;51.120;6.956;2022-09-09T10:52:29;2.70;;;1.42;;
19848;SDS011;10085;51.120;6.956;2022-09-09T10:57:36;2.70;;;1.10;;
19848;SDS011;10085;51.120;6.956;2022-09-09T11:02:42;4.35;;;1.20;;
19848;SDS011;10085;51.120;6.956;2022-09-09T11:07:46;10.10;;;1.60;;
19848;SDS011;10085;51.120;6.956;2022-09-09T11:12:54;3.13;;;1.30;;
19848;SDS011;10085;51.120;6.956;2022-09-09T11:18:01;3.95;;;1.45;;
19848;SDS011;10085;51.120;6.956;2022-09-09T11:23:04;3.33;;;1.13;;
19848;SDS011;10085;51.120;6.956;2022-09-09T11:28:19;5.55;;;1.33;;
19848;SDS011;10085;51.120;6.956;2022-09-09T11:33:39;3.90;;;1.35;;
19848;SDS011;10085;51.120;6.956;2022-09-09T11:38:51;2.05;;;1.27;;
19848;SDS011;10085;51.120;6.956;2022-09-09T11:43:56;7.68;;;1.45;;
19848;SDS011;10085;51.120;6.956;2022-09-09T11:49:00;2.05;;;1.20;;
19848;SDS011;10085;51.120;6.956;2022-09-09T11:54:28;3.75;;;1.30;;
19848;SDS011;10085;51.120;6.956;2022-09-09T11:59:33;2.45;;;1.48;;
19848;SDS011;10085;51.120;6.956;2022-09-09T12:04:37;3.17;;;1.17;;
19848;SDS011;10085;51.120;6.956;2022-09-09T12:09:45;3.67;;;1.00;;
19848;SDS011;10085;51.120;6.956;2022-09-09T12:15:01;1.65;;;0.90;;
19848;SDS011;10085;51.120;6.956;2022-09-09T12:20:33;2.65;;;1.10;;
19848;SDS011;10085;51.120;6.956;2022-09-09T12:25:41;5.38;;;1.27;;
19848;SDS011;10085;51.120;6.956;2022-09-09T12:30:55;2.28;;;0.90;;
19848;SDS011;10085;51.120;6.956;2022-09-09T12:36:02;1.77;;;1.05;;
19848;SDS011;10085;51.120;6.956;2022-09-09T12:41:15;2.03;;;0.90;;
19848;SDS011;10085;51.120;6.956;2022-09-09T12:46:25;1.80;;;1.17;;
19848;SDS011;10085;51.120;6.956;2022-09-09T12:51:33;3.58;;;1.20;;
19848;SDS011;10085;51.120;6.956;2022-09-09T12:56:36;4.50;;;1.50;;
19848;SDS011;10085;51.120;6.956;2022-09-09T13:01:40;3.20;;;1.40;;
19848;SDS011;10085;51.120;6.956;2022-09-09T13:06:44;5.38;;;1.30;;
19848;SDS011;10085;51.120;6.956;2022-09-09T13:11:47;1.30;;;1.20;;
19848;SDS011;10085;51.120;6.956;2022-09-09T13:16:57;5.00;;;1.42;;
19848;SDS011;10085;51.120;6.956;2022-09-09T13:22:10;3.03;;;1.15;;
19848;SDS011;10085;51.120;6.956;2022-09-09T13:27:23;2.95;;;1.25;;
19848;SDS011;10085;51.120;6.956;2022-09-09T13:32:30;3.35;;;1.33;;
19848;SDS011;10085;51.120;6.956;2022-09-09T13:37:33;5.72;;;1.50;;
19848;SDS011;10085;51.120;6.956;2022-09-09T13:42:39;2.78;;;1.30;;
19848;SDS011;10085;51.120;6.956;2022-09-09T13:47:45;3.70;;;1.58;;
19848;SDS011;10085;51.120;6.956;2022-09-09T13:52:48;2.47;;;1.40;;
19848;SDS011;10085;51.120;6.956;2022-09-09T13:57:52;3.28;;;1.48;;
19848;SDS011;10085;51.120;6.956;2022-09-09T14:02:57;5.25;;;1.60;;
19848;SDS011;10085;51.120;6.956;2022-09-09T14:08:03;3.33;;;1.30;;
19848;SDS011;10085;51.120;6.956;2022-09-09T14:13:06;6.25;;;1.58;;
19848;SDS011;10085;51.120;6.956;2022-09-09T14:18:12;3.25;;;1.30;;
19848;SDS011;10085;51.120;6.956;2022-09-09T14:23:15;2.45;;;1.45;;
19848;SDS011;10085;51.120;6.956;2022-09-09T14:28:18;3.00;;;1.58;;
19848;SDS011;10085;51.120;6.956;2022-09-09T14:33:42;3.60;;;1.50;;
19848;SDS011;10085;51.120;6.956;2022-09-09T14:38:45;2.42;;;1.50;;
19848;SDS011;10085;51.120;6.956;2022-09-09T14:43:48;4.40;;;1.80;;
19848;SDS011;10085;51.120;6.956;2022-09-09T14:48:52;3.83;;;1.38;;
19848;SDS011;10085;51.120;6.956;2022-09-09T14:53:56;3.28;;;1.30;;
19848;SDS011;10085;51.120;6.956;2022-09-09T14:59:00;3.00;;;1.40;;
19848;SDS011;10085;51.120;6.956;2022-09-09T15:04:05;2.97;;;1.45;;
19848;SDS011;10085;51.120;6.956;2022-09-09T15:09:08;3.40;;;1.60;;
19848;SDS011;10085;51.120;6.956;2022-09-09T15:14:11;2.90;;;1.33;;
19848;SDS011;10085;51.120;6.956;2022-09-09T15:19:15;3.47;;;1.58;;
19848;SDS011;10085;51.120;6.956;2022-09-09T15:24:18;3.05;;;1.00;;
19848;SDS011;10085;51.120;6.956;2022-09-09T15:29:21;2.08;;;1.10;;
19848;SDS011;10085;51.120;6.956;2022-09-09T15:34:25;2.72;;;1.13;;
19848;SDS011;10085;51.120;6.956;2022-09-09T15:39:27;2.60;;;1.10;;
19848;SDS011;10085;51.120;6.956;2022-09-09T15:44:37;2.45;;;1.10;;
19848;SDS011;10085;51.120;6.956;2022-09-09T15:49:42;1.52;;;1.15;;
19848;SDS011;10085;51.120;6.956;2022-09-09T15:54:45;1.83;;;1.30;;
19848;SDS011;10085;51.120;6.956;2022-09-09T15:59:48;2.65;;;1.23;;
19848;SDS011;10085;51.120;6.956;2022-09-09T16:04:52;2.70;;;1.40;;
19848;SDS011;10085;51.120;6.956;2022-09-09T16:09:54;2.85;;;1.20;;
19848;SDS011;10085;51.120;6.956;2022-09-09T16:14:57;5.85;;;1.50;;
19848;SDS011;10085;51.120;6.956;2022-09-09T16:20:02;4.22;;;1.52;;
19848;SDS011;10085;51.120;6.956;2022-09-09T16:25:07;2.55;;;1.40;;
19848;SDS011;10085;51.120;6.956;2022-09-09T16:30:11;3.20;;;1.30;;
19848;SDS011;10085;51.120;6.956;2022-09-09T16:35:15;3.60;;;1.67;;
19848;SDS011;10085;51.120;6.956;2022-09-09T16:40:20;2.75;;;1.50;;
19848;SDS011;10085;51.120;6.956;2022-09-09T16:45:23;2.40;;;1.42;;
19848;SDS011;10085;51.120;6.956;2022-09-09T16:50:27;3.55;;;1.60;;
19848;SDS011;10085;51.120;6.956;2022-09-09T16:55:30;3.75;;;1.67;;
19848;SDS011;10085;51.120;6.956;2022-09-09T17:00:33;2.55;;;1.50;;
19848;SDS011;10085;51.120;6.956;2022-09-09T17:05:40;2.95;;;1.48;;
19848;SDS011;10085;51.120;6.956;2022-09-09T17:10:43;5.07;;;2.30;;
19848;SDS011;10085;51.120;6.956;2022-09-09T17:15:46;1.90;;;1.20;;
19848;SDS011;10085;51.120;6.956;2022-09-09T17:20:50;2.75;;;1.60;;
19848;SDS011;10085;51.120;6.956;2022-09-09T17:25:55;2.85;;;1.40;;
19848;SDS011;10085;51.120;6.956;2022-09-09T17:30:59;3.15;;;1.20;;
19848;SDS011;10085;51.120;6.956;2022-09-09T17:36:08;3.30;;;1.27;;
19848;SDS011;10085;51.120;6.956;2022-09-09T17:41:13;3.60;;;1.50;;
19848;SDS011;10085;51.120;6.956;2022-09-09T17:46:17;9.75;;;1.55;;
19848;SDS011;10085;51.120;6.956;2022-09-09T17:51:24;1.98;;;1.30;;
19848;SDS011;10085;51.120;6.956;2022-09-09T17:56:29;4.47;;;1.63;;
19848;SDS011;10085;51.120;6.956;2022-09-09T18:01:34;3.40;;;1.65;;
19848;SDS011;10085;51.120;6.956;2022-09-09T18:06:41;2.97;;;1.60;;
19848;SDS011;10085;51.120;6.956;2022-09-09T18:11:45;4.82;;;1.65;;
19848;SDS011;10085;51.120;6.956;2022-09-09T18:16:49;4.88;;;1.77;;
19848;SDS011;10085;51.120;6.956;2022-09-09T18:21:53;3.90;;;1.83;;
19848;SDS011;10085;51.120;6.956;2022-09-09T18:27:02;3.53;;;1.80;;
19848;SDS011;10085;51.120;6.956;2022-09-09T18:32:05;2.15;;;1.50;;
19848;SDS011;10085;51.120;6.956;2022-09-09T18:37:09;3.17;;;1.73;;
19848;SDS011;10085;51.120;6.956;2022-09-09T18:42:12;1.83;;;1.50;;
19848;SDS011;10085;51.120;6.956;2022-09-09T18:47:15;2.42;;;1.52;;
19848;SDS011;10085;51.120;6.956;2022-09-09T18:52:19;5.13;;;1.70;;
19848;SDS011;10085;51.120;6.956;2022-09-09T18:57:22;5.15;;;1.67;;
19848;SDS011;10085;51.120;6.956;2022-09-09T19:02:25;6.30;;;1.60;;
19848;SDS011;10085;51.120;6.956;2022-09-09T19:07:29;2.20;;;1.65;;
19848;SDS011;10085;51.120;6.956;2022-09-09T19:12:32;2.72;;;1.92;;
19848;SDS011;10085;51.120;6.956;2022-09-09T19:17:35;2.80;;;1.60;;
19848;SDS011;10085;51.120;6.956;2022-09-09T19:22:39;5.63;;;1.90;;
19848;SDS011;10085;51.120;6.956;2022-09-09T19:27:41;6.95;;;2.25;;
19848;SDS011;10085;51.120;6.956;2022-09-09T19:32:44;2.65;;;1.90;;
19848;SDS011;10085;51.120;6.956;2022-09-09T19:37:55;6.85;;;2.10;;
19848;SDS011;10085;51.120;6.956;2022-09-09T19:42:58;3.83;;;2.00;;
19848;SDS011;10085;51.120;6.956;2022-09-09T19:48:01;3.38;;;1.90;;
19848;SDS011;10085;51.120;6.956;2022-09-09T19:53:07;4.00;;;1.90;;
19848;SDS011;10085;51.120;6.956;2022-09-09T19:58:10;9.48;;;1.88;;
19848;SDS011;10085;51.120;6.956;2022-09-09T20:03:14;3.33;;;1.70;;
19848;SDS011;10085;51.120;6.956;2022-09-09T20:08:21;4.82;;;1.90;;
19848;SDS011;10085;51.120;6.956;2022-09-09T20:13:24;3.13;;;1.80;;
19848;SDS011;10085;51.120;6.956;2022-09-09T20:18:27;4.28;;;1.90;;
19848;SDS011;10085;51.120;6.956;2022-09-09T20:23:34;2.75;;;1.73;;
19848;SDS011;10085;51.120;6.956;2022-09-09T20:28:38;7.15;;;1.80;;
19848;SDS011;10085;51.120;6.956;2022-09-09T20:33:42;2.03;;;1.77;;
19848;SDS011;10085;51.120;6.956;2022-09-09T20:38:48;2.60;;;1.73;;
19848;SDS011;10085;51.120;6.956;2022-09-09T20:43:52;2.95;;;1.70;;
19848;SDS011;10085;51.120;6.956;2022-09-09T20:48:56;2.72;;;1.83;;
19848;SDS011;10085;51.120;6.956;2022-09-09T20:54:05;6.93;;;1.90;;
19848;SDS011;10085;51.120;6.956;2022-09-09T20:59:10;1.80;;;1.60;;
19848;SDS011;10085;51.120;6.956;2022-09-09T21:04:14;5.15;;;2.00;;
19848;SDS011;10085;51.120;6.956;2022-09-09T21:09:19;2.10;;;1.58;;
19848;SDS011;10085;51.120;6.956;2022-09-09T21:14:23;3.45;;;1.98;;
19848;SDS011;10085;51.120;6.956;2022-09-09T21:19:27;3.55;;;2.00;;
19848;SDS011;10085;51.120;6.956;2022-09-09T21:24:31;4.97;;;1.65;;
19848;SDS011;10085;51.120;6.956;2022-09-09T21:29:34;6.68;;;2.30;;
19848;SDS011;10085;51.120;6.956;2022-09-09T21:34:37;6.00;;;2.13;;
19848;SDS011;10085;51.120;6.956;2022-09-09T21:39:41;5.00;;;2.38;;
19848;SDS011;10085;51.120;6.956;2022-09-09T21:44:44;3.65;;;1.90;;
19848;SDS011;10085;51.120;6.956;2022-09-09T21:49:47;5.88;;;1.88;;
19848;SDS011;10085;51.120;6.956;2022-09-09T21:54:51;3.83;;;2.10;;
19848;SDS011;10085;51.120;6.956;2022-09-09T21:59:54;7.82;;;2.83;;
19848;SDS011;10085;51.120;6.956;2022-09-09T22:04:57;5.13;;;2.15;;
19848;SDS011;10085;51.120;6.956;2022-09-09T22:10:01;4.13;;;2.13;;
19848;SDS011;10085;51.120;6.956;2022-09-09T22:15:05;4.30;;;2.10;;
19848;SDS011;10085;51.120;6.956;2022-09-09T22:20:09;3.78;;;2.13;;
19848;SDS011;10085;51.120;6.956;2022-09-09T22:25:13;4.13;;;2.17;;
19848;SDS011;10085;51.120;6.956;2022-09-09T22:30:16;5.85;;;2.38;;
19848;SDS011;10085;51.120;6.956;2022-09-09T22:35:19;7.28;;;2.35;;
19848;SDS011;10085;51.120;6.956;2022-09-09T22:40:24;5.38;;;2.10;;
19848;SDS011;10085;51.120;6.956;2022-09-09T22:45:26;3.85;;;1.92;;
19848;SDS011;10085;51.120;6.956;2022-09-09T22:50:32;5.00;;;2.00;;
19848;SDS011;10085;51.120;6.956;2022-09-09T22:55:42;2.45;;;1.67;;
19848;SDS011;10085;51.120;6.956;2022-09-09T23:00:45;6.63;;;2.30;;
19848;SDS011;10085;51.120;6.956;2022-09-09T23:05:54;5.78;;;2.30;;
19848;SDS011;10085;51.120;6.956;2022-09-09T23:10:59;6.45;;;1.83;;
19848;SDS011;10085;51.120;6.956;2022-09-09T23:16:09;6.13;;;2.10;;
19848;SDS011;10085;51.120;6.956;2022-09-09T23:21:13;3.15;;;2.20;;
19848;SDS011;10085;51.120;6.956;2022-09-09T23:26:17;4.00;;;2.10;;
19848;SDS011;10085;51.120;6.956;2022-09-09T23:31:21;3.15;;;2.20;;
19848;SDS011;10085;51.120;6.956;2022-09-09T23:36:25;3.13;;;1.98;;
19848;SDS011;10085;51.120;6.956;2022-09-09T23:41:31;4.25;;;1.80;;
19848;SDS011;10085;51.120;6.956;2022-09-09T23:46:35;4.47;;;2.20;;
19848;SDS011;10085;51.120;6.956;2022-09-09T23:51:38;4.68;;;2.35;;
19848;SDS011;10085;51.120;6.956;2022-09-09T23:56:42;4.95;;;1.90;;
